KFVX

Farmville Regional Airport

Farmville, Virginia, USA
METAR KFVX 220929Z AUTO 00000KT 10SM CLR M01/M01 A3029 RMK AO2
Observed Flight Rules
Oct-22 @ 09:29 UTC (5 hours ago) Visual Flight Rules
Visibility Clouds
10 miles
  • Clear skies
Temperatures Readings
Current -1°C / 30°F
Dewpoint -1°C / 30°F
Humidity 100%
Altimeter 30.29" Hg
Pressure 1026 hPa
Elevation 125
METAR KFVX 220929Z AUTO 00000KT 10SM CLR M01/M01 A3029 RMK AO2
Observed Flight Rules
Oct-22 @ 09:29 UTC
(5 hours ago)
VFR
Clouds
  • Clear skies
Temperature Dewpoint
-1°C / 30°F -1°C / 30°F
Humidity Altimeter Pressure
100% 30.29" Hg 1026 hPa